sensor_id;sensor_type;location;lat;lon;timestamp;temperature;humidity
60039;DHT22;45916;52.734;6.544;2022-10-04T00:06:59;12.00;99.90
60039;DHT22;45916;52.734;6.544;2022-10-04T00:09:42;12.00;99.90
60039;DHT22;45916;52.734;6.544;2022-10-04T00:12:39;11.90;99.90
60039;DHT22;45916;52.734;6.544;2022-10-04T00:15:24;11.90;99.90
60039;DHT22;45916;52.734;6.544;2022-10-04T00:18:20;12.00;99.90
60039;DHT22;45916;52.734;6.544;2022-10-04T00:31:26;11.90;99.90
60039;DHT22;45916;52.734;6.544;2022-10-04T00:36:55;11.90;99.90
60039;DHT22;45916;52.734;6.544;2022-10-04T00:44:55;11.90;99.90
60039;DHT22;45916;52.734;6.544;2022-10-04T00:47:52;11.90;99.90
60039;DHT22;45916;52.734;6.544;2022-10-04T00:50:41;11.90;99.90
60039;DHT22;45916;52.734;6.544;2022-10-04T00:56:00;11.90;99.90
60039;DHT22;45916;52.734;6.544;2022-10-04T01:01:20;11.90;99.90
60039;DHT22;45916;52.734;6.544;2022-10-04T01:03:49;12.00;99.90
60039;DHT22;45916;52.734;6.544;2022-10-04T01:06:17;12.00;99.90
60039;DHT22;45916;52.734;6.544;2022-10-04T01:08:47;12.00;99.90
60039;DHT22;45916;52.734;6.544;2022-10-04T01:11:34;12.00;99.90
60039;DHT22;45916;52.734;6.544;2022-10-04T01:14:23;12.00;99.90
60039;DHT22;45916;52.734;6.544;2022-10-04T01:16:51;12.00;99.90
60039;DHT22;45916;52.734;6.544;2022-10-04T01:24:33;12.10;99.90
60039;DHT22;45916;52.734;6.544;2022-10-04T01:26:59;12.10;99.90
60039;DHT22;45916;52.734;6.544;2022-10-04T01:29:27;12.10;99.90
60039;DHT22;45916;52.734;6.544;2022-10-04T01:32:00;12.10;99.90
60039;DHT22;45916;52.734;6.544;2022-10-04T01:34:28;12.10;99.90
60039;DHT22;45916;52.734;6.544;2022-10-04T01:36:59;12.00;99.90
60039;DHT22;45916;52.734;6.544;2022-10-04T01:39:26;12.10;99.90
60039;DHT22;45916;52.734;6.544;2022-10-04T01:44:35;12.10;99.90
60039;DHT22;45916;52.734;6.544;2022-10-04T01:47:07;12.10;99.90
60039;DHT22;45916;52.734;6.544;2022-10-04T01:49:36;12.10;99.90
60039;DHT22;45916;52.734;6.544;2022-10-04T01:52:14;12.10;99.90
60039;DHT22;45916;52.734;6.544;2022-10-04T01:54:44;12.10;99.90
60039;DHT22;45916;52.734;6.544;2022-10-04T01:57:22;12.00;99.90
60039;DHT22;45916;52.734;6.544;2022-10-04T02:00:01;12.10;99.90
60039;DHT22;45916;52.734;6.544;2022-10-04T02:05:30;12.00;99.90
60039;DHT22;45916;52.734;6.544;2022-10-04T02:08:02;12.00;99.90
60039;DHT22;45916;52.734;6.544;2022-10-04T02:10:28;11.90;99.90
60039;DHT22;45916;52.734;6.544;2022-10-04T02:12:54;11.90;99.90
60039;DHT22;45916;52.734;6.544;2022-10-04T02:15:22;11.90;99.90
60039;DHT22;45916;52.734;6.544;2022-10-04T02:17:54;11.90;99.90
60039;DHT22;45916;52.734;6.544;2022-10-04T02:20:22;11.80;99.90
60039;DHT22;45916;52.734;6.544;2022-10-04T02:22:51;11.80;99.90
60039;DHT22;45916;52.734;6.544;2022-10-04T02:25:20;11.80;99.90
60039;DHT22;45916;52.734;6.544;2022-10-04T02:27:50;11.70;99.90
60039;DHT22;45916;52.734;6.544;2022-10-04T02:30:17;11.60;99.90
60039;DHT22;45916;52.734;6.544;2022-10-04T02:32:43;11.50;99.90
60039;DHT22;45916;52.734;6.544;2022-10-04T02:35:45;11.50;99.90
60039;DHT22;45916;52.734;6.544;2022-10-04T02:43:16;11.10;99.90
60039;DHT22;45916;52.734;6.544;2022-10-04T02:56:40;10.90;99.90
60039;DHT22;45916;52.734;6.544;2022-10-04T02:59:10;10.90;99.90
60039;DHT22;45916;52.734;6.544;2022-10-04T03:04:20;10.70;99.90
60039;DHT22;45916;52.734;6.544;2022-10-04T03:06:48;10.60;99.90
60039;DHT22;45916;52.734;6.544;2022-10-04T03:09:15;10.50;99.90
60039;DHT22;45916;52.734;6.544;2022-10-04T03:11:44;10.60;99.90
60039;DHT22;45916;52.734;6.544;2022-10-04T03:14:22;10.50;99.90
60039;DHT22;45916;52.734;6.544;2022-10-04T03:16:54;10.40;99.90
60039;DHT22;45916;52.734;6.544;2022-10-04T03:19:23;10.40;99.90
60039;DHT22;45916;52.734;6.544;2022-10-04T03:21:52;10.50;99.90
60039;DHT22;45916;52.734;6.544;2022-10-04T03:24:22;10.40;99.90
60039;DHT22;45916;52.734;6.544;2022-10-04T03:26:54;10.40;99.90
60039;DHT22;45916;52.734;6.544;2022-10-04T03:29:23;10.40;99.90
60039;DHT22;45916;52.734;6.544;2022-10-04T03:31:52;10.30;99.90
60039;DHT22;45916;52.734;6.544;2022-10-04T03:34:23;10.40;99.90
60039;DHT22;45916;52.734;6.544;2022-10-04T03:36:52;10.30;99.90
60039;DHT22;45916;52.734;6.544;2022-10-04T03:39:29;10.30;99.90
60039;DHT22;45916;52.734;6.544;2022-10-04T03:41:57;10.30;99.90
60039;DHT22;45916;52.734;6.544;2022-10-04T03:44:23;10.30;99.90
60039;DHT22;45916;52.734;6.544;2022-10-04T03:46:49;10.20;99.90
60039;DHT22;45916;52.734;6.544;2022-10-04T03:49:36;10.20;99.90
60039;DHT22;45916;52.734;6.544;2022-10-04T03:52:03;10.10;99.90
60039;DHT22;45916;52.734;6.544;2022-10-04T03:54:30;10.00;99.90
60039;DHT22;45916;52.734;6.544;2022-10-04T03:56:57;10.00;99.90
60039;DHT22;45916;52.734;6.544;2022-10-04T03:59:25;10.10;99.90
60039;DHT22;45916;52.734;6.544;2022-10-04T04:05:13;9.90;99.90
60039;DHT22;45916;52.734;6.544;2022-10-04T04:07:44;9.80;99.90
60039;DHT22;45916;52.734;6.544;2022-10-04T04:10:22;9.70;99.90
60039;DHT22;45916;52.734;6.544;2022-10-04T04:15:36;9.60;99.90
60039;DHT22;45916;52.734;6.544;2022-10-04T04:18:18;9.60;99.90
60039;DHT22;45916;52.734;6.544;2022-10-04T04:20:45;9.60;99.90
60039;DHT22;45916;52.734;6.544;2022-10-04T04:23:21;9.60;99.90
60039;DHT22;45916;52.734;6.544;2022-10-04T04:25:50;9.50;99.90
60039;DHT22;45916;52.734;6.544;2022-10-04T04:31:31;9.60;99.90
60039;DHT22;45916;52.734;6.544;2022-10-04T04:34:14;9.50;99.90
60039;DHT22;45916;52.734;6.544;2022-10-04T04:36:41;9.50;99.90
60039;DHT22;45916;52.734;6.544;2022-10-04T04:41:54;9.50;99.90
60039;DHT22;45916;52.734;6.544;2022-10-04T04:44:20;9.60;99.90
60039;DHT22;45916;52.734;6.544;2022-10-04T04:46:47;9.60;99.90
60039;DHT22;45916;52.734;6.544;2022-10-04T04:49:15;9.60;99.90
60039;DHT22;45916;52.734;6.544;2022-10-04T04:51:50;9.60;99.90
60039;DHT22;45916;52.734;6.544;2022-10-04T04:54:20;9.60;99.90
60039;DHT22;45916;52.734;6.544;2022-10-04T04:56:49;9.60;99.90
60039;DHT22;45916;52.734;6.544;2022-10-04T04:59:16;9.50;99.90
60039;DHT22;45916;52.734;6.544;2022-10-04T05:01:44;9.60;99.90
60039;DHT22;45916;52.734;6.544;2022-10-04T05:06:45;9.60;99.90
60039;DHT22;45916;52.734;6.544;2022-10-04T05:09:29;9.60;99.90
60039;DHT22;45916;52.734;6.544;2022-10-04T05:12:04;9.50;99.90
60039;DHT22;45916;52.734;6.544;2022-10-04T05:14:34;9.50;99.90
60039;DHT22;45916;52.734;6.544;2022-10-04T05:17:02;9.40;99.90
60039;DHT22;45916;52.734;6.544;2022-10-04T05:19:38;9.40;99.90
60039;DHT22;45916;52.734;6.544;2022-10-04T05:22:10;9.50;99.90
60039;DHT22;45916;52.734;6.544;2022-10-04T05:24:40;9.50;99.90
60039;DHT22;45916;52.734;6.544;2022-10-04T05:27:31;9.50;99.90
60039;DHT22;45916;52.734;6.544;2022-10-04T05:30:07;9.60;99.90
60039;DHT22;45916;52.734;6.544;2022-10-04T05:33:00;9.50;99.90
60039;DHT22;45916;52.734;6.544;2022-10-04T05:35:27;9.50;99.90
60039;DHT22;45916;52.734;6.544;2022-10-04T05:38:14;9.40;99.90
60039;DHT22;45916;52.734;6.544;2022-10-04T05:41:01;9.40;99.90
60039;DHT22;45916;52.734;6.544;2022-10-04T05:43:36;9.40;99.90
60039;DHT22;45916;52.734;6.544;2022-10-04T05:48:54;9.40;99.90
60039;DHT22;45916;52.734;6.544;2022-10-04T05:51:23;9.40;99.90
60039;DHT22;45916;52.734;6.544;2022-10-04T05:53:50;9.40;99.90
60039;DHT22;45916;52.734;6.544;2022-10-04T05:56:41;9.40;99.90
60039;DHT22;45916;52.734;6.544;2022-10-04T06:07:42;9.50;99.90
60039;DHT22;45916;52.734;6.544;2022-10-04T06:13:14;9.60;99.90
60039;DHT22;45916;52.734;6.544;2022-10-04T06:15:55;9.60;99.90
60039;DHT22;45916;52.734;6.544;2022-10-04T06:18:43;9.70;99.90
60039;DHT22;45916;52.734;6.544;2022-10-04T06:21:35;9.90;99.90
60039;DHT22;45916;52.734;6.544;2022-10-04T06:24:10;10.10;99.90
60039;DHT22;45916;52.734;6.544;2022-10-04T06:26:43;10.50;99.90
60039;DHT22;45916;52.734;6.544;2022-10-04T06:29:21;10.80;99.90
60039;DHT22;45916;52.734;6.544;2022-10-04T06:37:31;11.50;99.90
60039;DHT22;45916;52.734;6.544;2022-10-04T06:59:47;13.70;99.90
60039;DHT22;45916;52.734;6.544;2022-10-04T07:02:28;13.80;99.90
60039;DHT22;45916;52.734;6.544;2022-10-04T07:07:49;15.20;99.90
60039;DHT22;45916;52.734;6.544;2022-10-04T07:10:39;15.70;99.90
60039;DHT22;45916;52.734;6.544;2022-10-04T07:13:26;15.80;99.90
60039;DHT22;45916;52.734;6.544;2022-10-04T07:16:22;16.00;99.90
60039;DHT22;45916;52.734;6.544;2022-10-04T07:21:21;17.30;99.90
60039;DHT22;45916;52.734;6.544;2022-10-04T07:23:59;17.40;99.90
60039;DHT22;45916;52.734;6.544;2022-10-04T07:26:57;17.50;99.90
60039;DHT22;45916;52.734;6.544;2022-10-04T07:29:37;17.70;99.90
60039;DHT22;45916;52.734;6.544;2022-10-04T07:32:07;16.70;99.90
60039;DHT22;45916;52.734;6.544;2022-10-04T07:34:58;15.50;99.90
60039;DHT22;45916;52.734;6.544;2022-10-04T07:37:28;15.00;99.90
60039;DHT22;45916;52.734;6.544;2022-10-04T07:40:03;14.40;99.90
60039;DHT22;45916;52.734;6.544;2022-10-04T07:42:59;14.20;99.90
60039;DHT22;45916;52.734;6.544;2022-10-04T07:45:32;14.80;99.90
60039;DHT22;45916;52.734;6.544;2022-10-04T07:48:19;16.20;99.90
60039;DHT22;45916;52.734;6.544;2022-10-04T07:56:21;21.10;99.90
60039;DHT22;45916;52.734;6.544;2022-10-04T08:01:44;23.60;91.40
60039;DHT22;45916;52.734;6.544;2022-10-04T08:07:09;22.10;77.10
60039;DHT22;45916;52.734;6.544;2022-10-04T08:17:45;18.30;96.60
60039;DHT22;45916;52.734;6.544;2022-10-04T08:23:35;20.40;99.90
60039;DHT22;45916;52.734;6.544;2022-10-04T08:31:50;25.90;79.40
60039;DHT22;45916;52.734;6.544;2022-10-04T09:07:39;32.50;48.50
60039;DHT22;45916;52.734;6.544;2022-10-04T09:10:37;33.30;46.80
60039;DHT22;45916;52.734;6.544;2022-10-04T09:13:37;34.00;48.10
60039;DHT22;45916;52.734;6.544;2022-10-04T09:21:50;35.70;44.00
60039;DHT22;45916;52.734;6.544;2022-10-04T09:30:15;36.80;40.70
60039;DHT22;45916;52.734;6.544;2022-10-04T09:33:07;36.50;40.30
60039;DHT22;45916;52.734;6.544;2022-10-04T09:52:43;36.70;41.40
60039;DHT22;45916;52.734;6.544;2022-10-04T10:01:01;37.20;39.90
60039;DHT22;45916;52.734;6.544;2022-10-04T10:08:58;35.60;40.30
60039;DHT22;45916;52.734;6.544;2022-10-04T10:25:46;34.20;41.80
60039;DHT22;45916;52.734;6.544;2022-10-04T10:53:18;23.50;58.00
60039;DHT22;45916;52.734;6.544;2022-10-04T11:16:32;22.30;60.90
60039;DHT22;45916;52.734;6.544;2022-10-04T11:22:50;22.00;60.80
60039;DHT22;45916;52.734;6.544;2022-10-04T11:27:58;21.60;63.10
60039;DHT22;45916;52.734;6.544;2022-10-04T11:31:25;21.40;63.80
60039;DHT22;45916;52.734;6.544;2022-10-04T11:33:55;21.20;64.40
60039;DHT22;45916;52.734;6.544;2022-10-04T11:41:50;20.50;68.20
60039;DHT22;45916;52.734;6.544;2022-10-04T11:55:27;19.90;73.20
60039;DHT22;45916;52.734;6.544;2022-10-04T11:58:16;20.00;74.20
60039;DHT22;45916;52.734;6.544;2022-10-04T12:01:10;19.20;77.50
60039;DHT22;45916;52.734;6.544;2022-10-04T12:03:58;18.90;80.40
60039;DHT22;45916;52.734;6.544;2022-10-04T12:12:08;19.70;80.60
60039;DHT22;45916;52.734;6.544;2022-10-04T12:31:30;19.30;86.20
60039;DHT22;45916;52.734;6.544;2022-10-04T12:47:56;18.40;93.60
60039;DHT22;45916;52.734;6.544;2022-10-04T12:53:21;18.30;96.80
60039;DHT22;45916;52.734;6.544;2022-10-04T12:56:27;18.40;98.20
60039;DHT22;45916;52.734;6.544;2022-10-04T12:59:25;18.50;99.50
60039;DHT22;45916;52.734;6.544;2022-10-04T13:02:09;18.50;98.00
60039;DHT22;45916;52.734;6.544;2022-10-04T13:05:03;18.70;97.10
60039;DHT22;45916;52.734;6.544;2022-10-04T13:10:57;18.60;98.10
60039;DHT22;45916;52.734;6.544;2022-10-04T13:13:25;18.60;96.20
60039;DHT22;45916;52.734;6.544;2022-10-04T13:26:53;18.40;97.00
60039;DHT22;45916;52.734;6.544;2022-10-04T13:29:26;18.40;97.60
60039;DHT22;45916;52.734;6.544;2022-10-04T13:32:06;18.30;97.40
60039;DHT22;45916;52.734;6.544;2022-10-04T13:34:39;18.20;99.10
60039;DHT22;45916;52.734;6.544;2022-10-04T13:37:54;17.90;98.40
60039;DHT22;45916;52.734;6.544;2022-10-04T13:40:14;17.80;99.80
60039;DHT22;45916;52.734;6.544;2022-10-04T13:45:47;17.90;99.90
60039;DHT22;45916;52.734;6.544;2022-10-04T13:48:27;18.10;99.90
60039;DHT22;45916;52.734;6.544;2022-10-04T13:56:59;18.40;99.60
60039;DHT22;45916;52.734;6.544;2022-10-04T13:59:45;18.30;99.90
60039;DHT22;45916;52.734;6.544;2022-10-04T14:02:38;18.20;99.90
60039;DHT22;45916;52.734;6.544;2022-10-04T14:25:34;17.90;99.90
60039;DHT22;45916;52.734;6.544;2022-10-04T14:28:15;17.90;99.90
60039;DHT22;45916;52.734;6.544;2022-10-04T14:35:00;18.10;97.90
60039;DHT22;45916;52.734;6.544;2022-10-04T15:07:51;18.00;97.80
60039;DHT22;45916;52.734;6.544;2022-10-04T15:15:48;17.70;99.00
60039;DHT22;45916;52.734;6.544;2022-10-04T15:21:29;17.70;99.90
60039;DHT22;45916;52.734;6.544;2022-10-04T15:23:54;17.80;99.90
60039;DHT22;45916;52.734;6.544;2022-10-04T15:43:13;17.10;99.40
60039;DHT22;45916;52.734;6.544;2022-10-04T15:59:50;16.90;99.90
60039;DHT22;45916;52.734;6.544;2022-10-04T16:10:54;16.70;99.90
60039;DHT22;45916;52.734;6.544;2022-10-04T16:13:53;16.60;99.90
60039;DHT22;45916;52.734;6.544;2022-10-04T16:22:16;16.20;99.90
60039;DHT22;45916;52.734;6.544;2022-10-04T16:24:47;16.10;99.90
60039;DHT22;45916;52.734;6.544;2022-10-04T16:27:26;16.00;99.90
60039;DHT22;45916;52.734;6.544;2022-10-04T16:30:22;15.90;99.90
60039;DHT22;45916;52.734;6.544;2022-10-04T16:33:01;15.80;99.90
60039;DHT22;45916;52.734;6.544;2022-10-04T16:43:29;15.40;99.90
60039;DHT22;45916;52.734;6.544;2022-10-04T16:46:16;15.40;99.90
60039;DHT22;45916;52.734;6.544;2022-10-04T16:48:54;15.40;99.90
60039;DHT22;45916;52.734;6.544;2022-10-04T17:07:56;14.90;99.90
60039;DHT22;45916;52.734;6.544;2022-10-04T17:13:33;14.90;99.90
60039;DHT22;45916;52.734;6.544;2022-10-04T17:16:13;14.80;99.90
60039;DHT22;45916;52.734;6.544;2022-10-04T17:19:04;14.80;99.90
60039;DHT22;45916;52.734;6.544;2022-10-04T17:24:16;14.70;99.90
60039;DHT22;45916;52.734;6.544;2022-10-04T17:27:24;14.70;99.90
60039;DHT22;45916;52.734;6.544;2022-10-04T17:44:15;14.40;99.90
60039;DHT22;45916;52.734;6.544;2022-10-04T17:50:01;14.40;99.90
60039;DHT22;45916;52.734;6.544;2022-10-04T17:52:49;14.40;99.90
60039;DHT22;45916;52.734;6.544;2022-10-04T17:55:48;14.40;99.90
60039;DHT22;45916;52.734;6.544;2022-10-04T18:01:25;14.50;99.90
60039;DHT22;45916;52.734;6.544;2022-10-04T18:04:22;14.60;99.90
60039;DHT22;45916;52.734;6.544;2022-10-04T18:07:20;14.70;99.90
60039;DHT22;45916;52.734;6.544;2022-10-04T18:13:10;14.80;99.90
60039;DHT22;45916;52.734;6.544;2022-10-04T18:18:20;14.90;99.90
60039;DHT22;45916;52.734;6.544;2022-10-04T18:23:27;14.90;99.90
60039;DHT22;45916;52.734;6.544;2022-10-04T18:26:16;15.00;99.90
60039;DHT22;45916;52.734;6.544;2022-10-04T18:28:43;15.00;99.90
60039;DHT22;45916;52.734;6.544;2022-10-04T18:33:51;15.00;99.90
60039;DHT22;45916;52.734;6.544;2022-10-04T18:36:23;15.00;99.90
60039;DHT22;45916;52.734;6.544;2022-10-04T18:41:37;15.10;99.90
60039;DHT22;45916;52.734;6.544;2022-10-04T18:44:27;15.10;99.90
60039;DHT22;45916;52.734;6.544;2022-10-04T18:46:55;15.10;99.90
60039;DHT22;45916;52.734;6.544;2022-10-04T18:49:45;15.10;99.90
60039;DHT22;45916;52.734;6.544;2022-10-04T18:52:21;15.00;99.90
60039;DHT22;45916;52.734;6.544;2022-10-04T18:57:36;15.00;99.90
60039;DHT22;45916;52.734;6.544;2022-10-04T19:00:23;15.00;99.90
60039;DHT22;45916;52.734;6.544;2022-10-04T19:05:53;15.00;99.90
60039;DHT22;45916;52.734;6.544;2022-10-04T19:14:01;15.00;99.90
60039;DHT22;45916;52.734;6.544;2022-10-04T19:16:44;15.10;99.90
60039;DHT22;45916;52.734;6.544;2022-10-04T19:19:40;15.10;99.90
60039;DHT22;45916;52.734;6.544;2022-10-04T19:22:17;15.10;99.90
60039;DHT22;45916;52.734;6.544;2022-10-04T19:30:21;15.00;99.90
60039;DHT22;45916;52.734;6.544;2022-10-04T19:33:00;15.10;99.90
60039;DHT22;45916;52.734;6.544;2022-10-04T19:35:40;15.00;99.90
60039;DHT22;45916;52.734;6.544;2022-10-04T19:41:18;15.00;99.90
60039;DHT22;45916;52.734;6.544;2022-10-04T19:46:50;15.10;99.90
60039;DHT22;45916;52.734;6.544;2022-10-04T19:52:27;15.10;99.90
60039;DHT22;45916;52.734;6.544;2022-10-04T19:55:28;15.10;99.90
60039;DHT22;45916;52.734;6.544;2022-10-04T19:58:19;15.20;99.90
60039;DHT22;45916;52.734;6.544;2022-10-04T20:00:46;15.20;99.90
60039;DHT22;45916;52.734;6.544;2022-10-04T20:03:12;15.20;99.90
60039;DHT22;45916;52.734;6.544;2022-10-04T20:05:43;15.20;99.90
60039;DHT22;45916;52.734;6.544;2022-10-04T20:08:14;15.20;99.90
60039;DHT22;45916;52.734;6.544;2022-10-04T20:10:41;15.20;99.90
60039;DHT22;45916;52.734;6.544;2022-10-04T20:15:47;15.20;99.90
60039;DHT22;45916;52.734;6.544;2022-10-04T20:31:50;15.40;99.90
60039;DHT22;45916;52.734;6.544;2022-10-04T20:37:01;15.40;99.90
60039;DHT22;45916;52.734;6.544;2022-10-04T20:42:10;15.50;99.90
60039;DHT22;45916;52.734;6.544;2022-10-04T20:47:43;15.50;99.90
60039;DHT22;45916;52.734;6.544;2022-10-04T20:50:24;15.50;99.90
60039;DHT22;45916;52.734;6.544;2022-10-04T20:52:53;15.50;99.90
60039;DHT22;45916;52.734;6.544;2022-10-04T20:55:24;15.50;99.90
60039;DHT22;45916;52.734;6.544;2022-10-04T20:58:00;15.50;99.90
60039;DHT22;45916;52.734;6.544;2022-10-04T21:00:30;15.50;99.90
60039;DHT22;45916;52.734;6.544;2022-10-04T21:03:14;15.50;99.90
60039;DHT22;45916;52.734;6.544;2022-10-04T21:05:40;15.60;99.90
60039;DHT22;45916;52.734;6.544;2022-10-04T21:08:35;15.60;99.90
60039;DHT22;45916;52.734;6.544;2022-10-04T21:13:56;15.60;99.90
60039;DHT22;45916;52.734;6.544;2022-10-04T21:16:41;15.60;99.90
60039;DHT22;45916;52.734;6.544;2022-10-04T21:19:47;15.60;99.90
60039;DHT22;45916;52.734;6.544;2022-10-04T21:29:50;15.60;99.90
60039;DHT22;45916;52.734;6.544;2022-10-04T21:32:22;15.60;99.90
60039;DHT22;45916;52.734;6.544;2022-10-04T21:34:49;15.60;99.90
60039;DHT22;45916;52.734;6.544;2022-10-04T21:37:15;15.60;99.90
60039;DHT22;45916;52.734;6.544;2022-10-04T21:39:41;15.60;99.90
60039;DHT22;45916;52.734;6.544;2022-10-04T21:42:07;15.50;99.90
60039;DHT22;45916;52.734;6.544;2022-10-04T21:44:33;15.60;99.90
60039;DHT22;45916;52.734;6.544;2022-10-04T21:46:59;15.50;99.90
60039;DHT22;45916;52.734;6.544;2022-10-04T21:49:25;15.60;99.90
60039;DHT22;45916;52.734;6.544;2022-10-04T21:51:51;15.60;99.90
60039;DHT22;45916;52.734;6.544;2022-10-04T21:54:17;15.50;99.90
60039;DHT22;45916;52.734;6.544;2022-10-04T21:56:42;15.50;99.90
60039;DHT22;45916;52.734;6.544;2022-10-04T21:59:08;15.50;99.90
60039;DHT22;45916;52.734;6.544;2022-10-04T22:01:34;15.40;99.90
60039;DHT22;45916;52.734;6.544;2022-10-04T22:04:00;15.40;99.90
60039;DHT22;45916;52.734;6.544;2022-10-04T22:06:25;15.40;99.90
60039;DHT22;45916;52.734;6.544;2022-10-04T22:08:51;15.40;99.90
60039;DHT22;45916;52.734;6.544;2022-10-04T22:11:17;15.40;99.90
60039;DHT22;45916;52.734;6.544;2022-10-04T22:13:43;15.40;99.90
60039;DHT22;45916;52.734;6.544;2022-10-04T22:16:09;15.40;99.90
60039;DHT22;45916;52.734;6.544;2022-10-04T22:18:35;15.40;99.90
60039;DHT22;45916;52.734;6.544;2022-10-04T22:21:02;15.40;99.90
60039;DHT22;45916;52.734;6.544;2022-10-04T22:23:29;15.40;99.90
60039;DHT22;45916;52.734;6.544;2022-10-04T22:25:58;15.40;99.90
60039;DHT22;45916;52.734;6.544;2022-10-04T22:28:28;15.30;99.90
60039;DHT22;45916;52.734;6.544;2022-10-04T22:30:55;15.40;99.90
60039;DHT22;45916;52.734;6.544;2022-10-04T22:33:35;15.30;99.90
60039;DHT22;45916;52.734;6.544;2022-10-04T22:36:25;15.40;99.90
60039;DHT22;45916;52.734;6.544;2022-10-04T22:39:02;15.30;99.90
60039;DHT22;45916;52.734;6.544;2022-10-04T22:41:32;15.30;99.90
60039;DHT22;45916;52.734;6.544;2022-10-04T22:44:05;15.30;99.90
60039;DHT22;45916;52.734;6.544;2022-10-04T22:46:38;15.30;99.90
60039;DHT22;45916;52.734;6.544;2022-10-04T22:49:09;15.30;99.90
60039;DHT22;45916;52.734;6.544;2022-10-04T22:51:38;15.30;99.90
60039;DHT22;45916;52.734;6.544;2022-10-04T22:54:12;15.30;99.90
60039;DHT22;45916;52.734;6.544;2022-10-04T22:56:40;15.40;99.90
60039;DHT22;45916;52.734;6.544;2022-10-04T22:59:09;15.30;99.90
60039;DHT22;45916;52.734;6.544;2022-10-04T23:01:35;15.30;99.90
60039;DHT22;45916;52.734;6.544;2022-10-04T23:04:01;15.40;99.90
60039;DHT22;45916;52.734;6.544;2022-10-04T23:06:26;15.40;99.90
60039;DHT22;45916;52.734;6.544;2022-10-04T23:08:52;15.40;99.90
60039;DHT22;45916;52.734;6.544;2022-10-04T23:11:18;15.40;99.90
60039;DHT22;45916;52.734;6.544;2022-10-04T23:13:43;15.40;99.90
60039;DHT22;45916;52.734;6.544;2022-10-04T23:16:21;15.30;99.90
60039;DHT22;45916;52.734;6.544;2022-10-04T23:18:47;15.30;99.90
60039;DHT22;45916;52.734;6.544;2022-10-04T23:21:24;15.40;99.90
60039;DHT22;45916;52.734;6.544;2022-10-04T23:23:51;15.30;99.90
60039;DHT22;45916;52.734;6.544;2022-10-04T23:26:35;15.40;99.90
60039;DHT22;45916;52.734;6.544;2022-10-04T23:29:05;15.30;99.90
60039;DHT22;45916;52.734;6.544;2022-10-04T23:31:31;15.30;99.90
60039;DHT22;45916;52.734;6.544;2022-10-04T23:33:59;15.40;99.90
60039;DHT22;45916;52.734;6.544;2022-10-04T23:36:25;15.40;99.90
60039;DHT22;45916;52.734;6.544;2022-10-04T23:38:58;15.40;99.90
60039;DHT22;45916;52.734;6.544;2022-10-04T23:41:25;15.40;99.90
60039;DHT22;45916;52.734;6.544;2022-10-04T23:43:51;15.40;99.90
60039;DHT22;45916;52.734;6.544;2022-10-04T23:46:22;15.40;99.90
60039;DHT22;45916;52.734;6.544;2022-10-04T23:48:48;15.40;99.90
60039;DHT22;45916;52.734;6.544;2022-10-04T23:51:17;15.40;99.90
60039;DHT22;45916;52.734;6.544;2022-10-04T23:53:45;15.40;99.90
60039;DHT22;45916;52.734;6.544;2022-10-04T23:56:23;15.40;99.90
60039;DHT22;45916;52.734;6.544;2022-10-04T23:58:50;15.40;99.90
